Time;durP1;ratioP1;P1;durP2;ratioP2;P2;SDS_P1;SDS_P2;PMS_P1;PMS_P2;Temp;Humidity;BMP_temperature;BMP_pressure;BME280_temperature;BME280_humidity;BME280_pressure;Samples;Min_cycle;Max_cycle;Signal;HPM_P1;HPM_P2
2022/04/17 00:01:37;;;;;;;6.38;4.28;;;3.10;78.50;;;;;;5074202;28;20446;-70
2022/04/17 00:04:03;;;;;;;5.47;4.00;;;3.10;78.70;;;;;;5074334;28;20031;-71
2022/04/17 00:06:29;;;;;;;6.72;4.00;;;3.10;78.80;;;;;;5052362;28;20032;-70
2022/04/17 00:08:57;;;;;;;8.60;4.90;;;3.10;78.30;;;;;;5072660;28;20384;-71
2022/04/17 00:11:23;;;;;;;8.95;4.90;;;3.00;78.20;;;;;;5071608;28;20050;-70
2022/04/17 00:13:49;;;;;;;7.55;3.90;;;3.00;78.90;;;;;;5049963;28;20256;-71
2022/04/17 00:16:15;;;;;;;6.50;4.05;;;3.00;79.10;;;;;;5069751;28;20112;-71
2022/04/17 00:18:40;;;;;;;10.38;4.65;;;2.90;79.10;;;;;;5071354;28;20503;-70
2022/04/17 00:21:09;;;;;;;8.93;4.60;;;2.90;79.30;;;;;;5069347;28;20047;-70
2022/04/17 00:23:35;;;;;;;7.63;4.20;;;2.80;78.80;;;;;;5069121;28;20569;-70
2022/04/17 00:26:01;;;;;;;9.52;4.55;;;2.80;79.40;;;;;;5072770;28;20856;-71
2022/04/17 00:28:27;;;;;;;10.48;4.25;;;2.80;79.90;;;;;;5067172;28;20036;-71
2022/04/17 00:30:54;;;;;;;6.68;4.18;;;2.80;79.90;;;;;;5068867;28;20043;-70
2022/04/17 00:33:20;;;;;;;5.85;3.63;;;2.80;80.00;;;;;;5068588;28;20066;-71
2022/04/17 00:35:46;;;;;;;12.75;4.05;;;2.80;80.00;;;;;;5057409;28;20028;-71
2022/04/17 00:38:12;;;;;;;6.88;3.95;;;2.80;80.30;;;;;;5070298;28;20372;-70
2022/04/17 00:40:38;;;;;;;8.30;4.40;;;2.80;80.30;;;;;;5071572;28;20029;-70
2022/04/17 00:43:46;;;;;;;7.28;4.25;;;2.80;80.40;;;;;;5068911;28;20028;-71
2022/04/17 00:46:12;;;;;;;6.43;4.00;;;2.80;81.60;;;;;;4995890;28;20026;-71
2022/04/17 00:48:37;;;;;;;6.07;4.30;;;2.80;82.10;;;;;;5056847;28;20025;-71
2022/04/17 00:51:03;;;;;;;5.90;3.70;;;2.70;81.70;;;;;;5070313;28;20024;-70
2022/04/17 00:53:29;;;;;;;8.27;4.15;;;2.70;81.30;;;;;;5068863;28;20516;-70
2022/04/17 00:55:55;;;;;;;7.18;4.18;;;2.70;81.80;;;;;;5072822;28;20038;-70
2022/04/17 00:58:21;;;;;;;7.55;4.10;;;2.60;81.80;;;;;;5071430;28;20599;-70
2022/04/17 01:00:47;;;;;;;6.55;3.83;;;2.60;82.40;;;;;;5066497;28;20032;-71
2022/04/17 01:03:13;;;;;;;6.18;3.63;;;2.60;81.80;;;;;;5068294;28;20028;-70
2022/04/17 01:05:43;;;;;;;5.95;3.90;;;2.50;81.20;;;;;;5067818;28;20052;-71
2022/04/17 01:08:10;;;;;;;7.22;4.32;;;2.50;81.50;;;;;;5068240;28;20073;-71
2022/04/17 01:10:36;;;;;;;8.82;4.45;;;2.40;81.40;;;;;;5068465;28;20029;-71
2022/04/17 01:13:03;;;;;;;6.65;3.92;;;2.40;81.00;;;;;;5071779;28;20062;-71
2022/04/17 01:15:29;;;;;;;5.40;3.78;;;2.40;80.20;;;;;;5067233;28;20047;-70
2022/04/17 01:17:55;;;;;;;10.32;4.65;;;2.40;80.10;;;;;;5055468;28;20028;-71
2022/04/17 01:20:24;;;;;;;8.27;4.75;;;2.30;80.40;;;;;;5066400;28;20825;-71
2022/04/17 01:22:50;;;;;;;6.72;4.13;;;2.30;80.50;;;;;;5070953;28;20028;-71
2022/04/17 01:28:04;;;;;;;7.60;4.13;;;2.20;80.60;;;;;;5068373;28;20029;-70
2022/04/17 01:30:30;;;;;;;7.03;3.95;;;2.20;80.00;;;;;;5070485;28;20048;-71
2022/04/17 01:32:56;;;;;;;7.43;3.95;;;2.20;80.10;;;;;;5067156;28;20778;-72
2022/04/17 01:35:22;;;;;;;5.78;3.85;;;2.10;80.30;;;;;;5054440;28;20090;-71
2022/04/17 01:37:50;;;;;;;5.70;3.88;;;2.10;80.30;;;;;;5068163;28;20028;-71
2022/04/17 01:40:16;;;;;;;5.35;3.33;;;2.00;80.50;;;;;;5067818;28;20044;-73
2022/04/17 01:42:42;;;;;;;5.47;3.15;;;2.00;81.40;;;;;;5070692;28;20051;-70
2022/04/17 01:45:09;;;;;;;6.15;3.50;;;2.00;82.70;;;;;;5069329;28;20118;-71
2022/04/17 01:47:35;;;;;;;5.15;3.22;;;2.00;83.60;;;;;;5070113;28;20036;-70
2022/04/17 01:50:00;;;;;;;4.35;3.17;;;2.00;84.30;;;;;;5074625;28;20491;-71
2022/04/17 01:52:27;;;;;;;5.07;2.53;;;2.10;84.50;;;;;;5070561;28;20047;-72
2022/04/17 01:54:53;;;;;;;5.97;2.92;;;2.00;84.50;;;;;;5073340;28;20641;-73
2022/04/17 01:57:19;;;;;;;5.57;3.10;;;2.00;85.00;;;;;;5073267;28;20028;-72
2022/04/17 01:59:44;;;;;;;6.25;2.90;;;2.00;85.40;;;;;;5069186;28;20032;-72
2022/04/17 02:02:10;;;;;;;3.75;2.95;;;2.00;84.50;;;;;;5073295;28;20024;-72
2022/04/17 02:04:36;;;;;;;5.47;3.60;;;2.00;83.80;;;;;;5069627;28;20613;-71
2022/04/17 02:07:03;;;;;;;5.15;3.53;;;2.00;83.20;;;;;;5073052;28;20032;-72
2022/04/17 02:09:29;;;;;;;7.05;3.65;;;1.90;83.00;;;;;;5069576;28;20046;-72
2022/04/17 02:11:55;;;;;;;8.80;3.30;;;1.90;83.50;;;;;;5073384;28;20591;-72
2022/04/17 02:14:20;;;;;;;7.50;3.55;;;1.90;84.20;;;;;;5073241;28;20035;-72
2022/04/17 02:16:46;;;;;;;8.20;3.70;;;1.80;85.20;;;;;;5068973;28;20090;-73
2022/04/17 02:19:12;;;;;;;5.63;3.88;;;1.80;85.50;;;;;;5077669;28;20043;-73
2022/04/17 02:21:38;;;;;;;6.18;3.75;;;1.80;85.50;;;;;;5054123;28;20510;-72
2022/04/17 02:24:05;;;;;;;5.22;3.35;;;1.80;85.90;;;;;;5073400;28;20030;-72
2022/04/17 02:26:31;;;;;;;4.97;3.00;;;1.90;86.40;;;;;;5072130;28;20593;-73
2022/04/17 02:28:58;;;;;;;4.65;3.22;;;1.80;86.60;;;;;;5070319;28;20025;-72
2022/04/17 02:31:25;;;;;;;6.30;3.55;;;1.90;86.60;;;;;;5052655;28;20043;-72
2022/04/17 02:33:51;;;;;;;6.55;3.90;;;1.90;86.80;;;;;;5069804;28;20763;-72
2022/04/17 02:36:17;;;;;;;5.57;3.55;;;1.90;86.90;;;;;;5071031;28;20032;-72
2022/04/17 02:38:43;;;;;;;7.57;3.45;;;1.90;87.20;;;;;;5071908;28;20055;-72
2022/04/17 02:41:09;;;;;;;5.75;3.13;;;1.90;87.00;;;;;;5070701;28;20036;-72
2022/04/17 02:43:34;;;;;;;5.53;3.03;;;1.90;86.90;;;;;;5067249;28;20024;-73
2022/04/17 02:46:00;;;;;;;7.13;3.55;;;1.90;86.40;;;;;;5068467;28;20033;-72
2022/04/17 02:48:26;;;;;;;5.78;3.15;;;2.00;86.20;;;;;;5069584;28;20031;-72
2022/04/17 02:50:52;;;;;;;7.65;3.58;;;2.00;86.60;;;;;;5068983;28;20785;-72
2022/04/17 02:53:18;;;;;;;5.32;3.42;;;2.00;86.50;;;;;;5070816;28;20032;-72
2022/04/17 02:55:44;;;;;;;6.13;3.47;;;2.00;86.00;;;;;;5069930;28;20025;-72
2022/04/17 02:58:10;;;;;;;5.07;3.55;;;2.00;86.00;;;;;;5069681;28;20073;-73
2022/04/17 03:05:36;;;;;;;5.72;3.55;;;2.10;86.40;;;;;;5068220;28;20045;-73
2022/04/17 03:06:10;;;;;;;7.35;3.50;;;2.00;85.50;;;;;;5071154;28;20032;-73
2022/04/17 03:08:41;;;;;;;6.70;3.50;;;1.90;84.70;;;;;;5054596;28;20755;-72
2022/04/17 03:11:07;;;;;;;6.97;3.63;;;1.90;84.20;;;;;;5078761;28;20043;-73
2022/04/17 03:13:33;;;;;;;5.80;3.40;;;1.80;83.80;;;;;;5079770;28;20028;-73
2022/04/17 03:15:59;;;;;;;9.10;4.05;;;1.70;83.40;;;;;;5076282;28;20028;-73
2022/04/17 03:18:25;;;;;;;5.60;3.03;;;1.60;83.80;;;;;;5083256;28;20770;-72
2022/04/17 03:20:51;;;;;;;5.78;3.65;;;1.60;84.00;;;;;;5077660;28;20383;-73
2022/04/17 03:23:17;;;;;;;5.00;3.00;;;1.50;84.30;;;;;;5076072;28;20110;-72
2022/04/17 03:25:44;;;;;;;4.80;3.17;;;1.40;84.40;;;;;;5081768;28;20550;-72
2022/04/17 03:28:10;;;;;;;3.92;3.03;;;1.40;85.20;;;;;;5078981;28;20049;-73
2022/04/17 03:30:36;;;;;;;5.18;3.08;;;1.30;85.20;;;;;;5073398;28;20606;-73
2022/04/17 03:33:02;;;;;;;6.22;3.53;;;1.30;85.50;;;;;;5085007;28;20111;-72
2022/04/17 03:35:30;;;;;;;5.15;3.17;;;1.20;86.00;;;;;;5083137;28;20131;-72
2022/04/17 03:37:57;;;;;;;6.93;3.30;;;1.20;85.70;;;;;;5073472;28;20491;-72
2022/04/17 03:40:22;;;;;;;6.20;3.35;;;1.20;86.50;;;;;;5068658;28;20035;-72
2022/04/17 03:42:49;;;;;;;6.13;3.63;;;1.20;87.50;;;;;;5075831;28;20352;-72
2022/04/17 03:45:16;;;;;;;5.90;3.53;;;1.20;88.30;;;;;;5070937;28;20106;-72
2022/04/17 03:47:43;;;;;;;6.88;4.15;;;1.20;88.10;;;;;;5073015;28;20153;-73
2022/04/17 03:50:09;;;;;;;5.07;3.63;;;1.20;87.90;;;;;;5063067;28;20021;-72
2022/04/17 03:52:42;;;;;;;6.72;4.20;;;1.20;87.60;;;;;;5081034;28;20051;-72
2022/04/17 03:55:09;;;;;;;7.70;4.50;;;1.20;87.70;;;;;;5072476;28;20116;-72
2022/04/17 03:57:35;;;;;;;7.10;3.88;;;1.20;88.10;;;;;;5080526;28;20059;-73
2022/04/17 04:00:02;;;;;;;6.38;3.80;;;1.20;87.60;;;;;;5082262;28;20028;-73
2022/04/17 04:02:37;;;;;;;10.68;4.63;;;1.30;89.00;;;;;;5074832;28;20113;-73
2022/04/17 04:05:04;;;;;;;8.13;4.90;;;1.30;90.00;;;;;;5083697;28;20032;-72
2022/04/17 04:07:29;;;;;;;6.30;4.70;;;1.40;90.40;;;;;;5076566;28;20021;-73
2022/04/17 04:09:55;;;;;;;7.18;4.53;;;1.50;90.80;;;;;;5082399;28;20030;-72
2022/04/17 04:12:21;;;;;;;11.65;4.82;;;1.60;91.10;;;;;;5081373;28;20447;-73
2022/04/17 04:14:47;;;;;;;4.35;3.75;;;1.60;91.30;;;;;;5076336;28;20411;-73
2022/04/17 04:17:12;;;;;;;7.78;4.40;;;1.60;91.40;;;;;;5082604;28;20036;-72
2022/04/17 04:19:38;;;;;;;11.00;5.40;;;1.70;91.30;;;;;;5078516;28;20027;-72
2022/04/17 04:22:04;;;;;;;6.68;4.00;;;1.70;91.30;;;;;;5082775;28;20483;-72
2022/04/17 04:24:31;;;;;;;6.88;4.38;;;1.80;91.10;;;;;;5068334;28;20043;-73
2022/04/17 04:29:41;;;;;;;8.60;3.83;;;1.80;90.70;;;;;;5080386;28;20696;-72
2022/04/17 04:32:07;;;;;;;8.63;4.57;;;1.90;90.70;;;;;;5064711;28;20031;-72
2022/04/17 04:34:33;;;;;;;7.53;4.53;;;1.90;91.00;;;;;;5087471;28;20023;-72
2022/04/17 04:36:59;;;;;;;9.80;4.88;;;2.00;91.10;;;;;;5082491;28;20047;-70
2022/04/17 04:39:24;;;;;;;9.20;5.03;;;2.20;91.30;;;;;;5081722;28;20020;-70
2022/04/17 04:41:50;;;;;;;8.85;4.93;;;2.20;91.40;;;;;;5078752;28;20028;-73
2022/04/17 04:44:16;;;;;;;8.20;4.72;;;2.40;91.50;;;;;;5088479;28;20040;-71
2022/04/17 04:46:42;;;;;;;8.73;5.60;;;2.50;91.60;;;;;;5085896;28;20471;-72
2022/04/17 04:51:53;;;;;;;10.57;5.13;;;2.80;90.80;;;;;;5072425;28;20067;-71
2022/04/17 04:54:19;;;;;;;8.25;4.43;;;2.80;90.70;;;;;;5087874;28;20066;-72
2022/04/17 04:56:44;;;;;;;9.45;5.00;;;2.90;90.40;;;;;;5074563;28;20024;-72
2022/04/17 04:59:10;;;;;;;6.35;3.83;;;3.00;89.50;;;;;;5082448;28;20483;-72
2022/04/17 05:01:36;;;;;;;7.97;4.00;;;2.90;88.50;;;;;;5076466;28;20032;-72
2022/04/17 05:04:02;;;;;;;7.80;4.03;;;3.00;87.90;;;;;;5068082;28;20028;-72
2022/04/17 05:06:28;;;;;;;6.95;4.15;;;3.00;87.50;;;;;;5073078;28;20539;-72
2022/04/17 05:08:54;;;;;;;6.40;3.92;;;3.00;87.00;;;;;;5075946;28;20069;-72
2022/04/17 05:11:20;;;;;;;5.50;3.95;;;3.10;87.20;;;;;;5074185;28;20482;-72
2022/04/17 05:13:46;;;;;;;7.10;3.70;;;3.20;86.70;;;;;;5073658;28;20047;-72
2022/04/17 05:16:13;;;;;;;7.78;3.95;;;3.20;86.20;;;;;;5074922;28;20127;-72
2022/04/17 05:18:39;;;;;;;5.07;3.60;;;3.30;85.60;;;;;;5082127;28;20034;-71
2022/04/17 05:21:06;;;;;;;6.30;3.55;;;3.50;85.20;;;;;;5089009;28;20390;-72
2022/04/17 05:23:33;;;;;;;6.57;3.50;;;3.60;85.00;;;;;;5084365;28;20027;-72
2022/04/17 05:26:01;;;;;;;6.82;4.10;;;3.70;84.80;;;;;;5079661;28;20028;-72
2022/04/17 05:28:30;;;;;;;5.82;3.85;;;3.90;85.40;;;;;;5077981;28;20046;-72
2022/04/17 05:30:58;;;;;;;9.60;4.50;;;4.00;85.60;;;;;;5075031;28;20031;-72
2022/04/17 05:33:24;;;;;;;8.05;5.10;;;4.30;85.00;;;;;;5057961;28;20033;-72
2022/04/17 05:35:51;;;;;;;8.45;4.70;;;4.60;84.10;;;;;;5085814;28;20500;-72
2022/04/17 05:38:17;;;;;;;6.70;4.07;;;5.10;82.10;;;;;;5080509;28;20066;-72
2022/04/17 05:40:46;;;;;;;5.97;3.90;;;5.70;80.30;;;;;;5085966;28;20448;-72
2022/04/17 05:43:12;;;;;;;8.60;4.47;;;6.20;77.50;;;;;;5076955;28;20036;-72
2022/04/17 05:45:39;;;;;;;8.63;4.25;;;6.70;75.60;;;;;;5070029;28;20114;-72
2022/04/17 05:48:07;;;;;;;7.18;3.78;;;7.30;72.90;;;;;;5083268;28;20028;-72
2022/04/17 05:50:33;;;;;;;5.82;3.90;;;7.90;70.30;;;;;;5060279;28;20040;-72
2022/04/17 05:52:59;;;;;;;6.50;3.80;;;9.30;68.10;;;;;;5075268;28;20762;-73
2022/04/17 05:55:25;;;;;;;6.53;3.47;;;11.20;61.10;;;;;;5083989;28;20034;-73
2022/04/17 05:57:51;;;;;;;5.93;3.75;;;12.20;56.40;;;;;;5071544;28;20058;-73
2022/04/17 06:00:17;;;;;;;6.32;3.50;;;13.20;51.60;;;;;;5076716;28;20784;-72
2022/04/17 06:02:47;;;;;;;5.18;3.35;;;14.70;47.40;;;;;;5078131;28;20050;-73
2022/04/17 06:05:14;;;;;;;6.57;3.70;;;16.10;43.70;;;;;;5073085;28;20044;-73
2022/04/17 06:07:40;;;;;;;6.47;4.30;;;16.60;42.00;;;;;;5076096;28;20033;-74
2022/04/17 06:10:08;;;;;;;6.70;3.70;;;17.20;40.60;;;;;;5075513;28;20481;-73
2022/04/17 06:12:35;;;;;;;6.57;3.70;;;17.80;39.30;;;;;;5076010;28;20042;-74
2022/04/17 06:15:01;;;;;;;6.43;4.13;;;18.20;38.20;;;;;;5072412;28;20039;-75
2022/04/17 06:17:26;;;;;;;4.97;3.65;;;18.40;37.60;;;;;;5072129;28;20449;-76
2022/04/17 06:19:52;;;;;;;7.50;3.60;;;18.40;36.30;;;;;;5079328;28;20024;-72
2022/04/17 06:22:18;;;;;;;5.32;3.90;;;18.90;36.20;;;;;;5083844;28;20084;-71
2022/04/17 06:24:44;;;;;;;5.82;3.50;;;19.50;35.40;;;;;;5081710;28;20027;-74
2022/04/17 06:27:10;;;;;;;6.75;3.50;;;20.10;34.80;;;;;;5081788;28;20542;-74
2022/04/17 06:29:36;;;;;;;4.65;3.25;;;20.30;34.10;;;;;;5083071;28;20044;-74
2022/04/17 06:32:02;;;;;;;5.47;3.45;;;20.40;33.20;;;;;;5076246;28;20032;-74
2022/04/17 06:34:27;;;;;;;7.43;4.45;;;19.50;34.10;;;;;;5077857;28;20085;-74
2022/04/17 06:36:53;;;;;;;4.43;3.55;;;18.40;35.60;;;;;;5070843;28;20142;-73
2022/04/17 06:39:19;;;;;;;6.65;3.80;;;17.30;37.50;;;;;;5079071;28;20032;-70
2022/04/17 06:41:45;;;;;;;5.15;3.40;;;16.70;38.40;;;;;;5058579;28;20028;-71
2022/04/17 06:44:11;;;;;;;6.07;3.25;;;16.70;38.60;;;;;;5075518;28;20039;-74
2022/04/17 06:46:38;;;;;;;4.72;3.10;;;17.10;38.20;;;;;;5072709;28;20027;-67
2022/04/17 06:49:07;;;;;;;8.77;3.35;;;17.40;37.80;;;;;;5078853;28;20116;-66
2022/04/17 06:51:32;;;;;;;4.20;3.30;;;17.20;37.60;;;;;;5068815;28;20068;-68
2022/04/17 06:53:58;;;;;;;4.15;2.95;;;17.10;38.00;;;;;;5070551;28;20116;-69
2022/04/17 06:56:24;;;;;;;4.20;2.83;;;17.90;36.90;;;;;;5085763;28;20523;-67
2022/04/17 06:58:49;;;;;;;3.20;2.67;;;19.80;34.00;;;;;;5085576;28;20395;-75
2022/04/17 07:01:15;;;;;;;3.95;2.60;;;21.20;31.60;;;;;;5083269;28;20043;-72
2022/04/17 07:03:42;;;;;;;4.55;2.63;;;21.40;30.60;;;;;;5078915;28;20027;-72
2022/04/17 07:06:08;;;;;;;3.45;2.67;;;20.30;31.40;;;;;;5077956;28;20060;-70
2022/04/17 07:08:33;;;;;;;3.65;2.50;;;19.20;33.50;;;;;;5076033;28;20114;-65
2022/04/17 07:10:59;;;;;;;2.53;2.25;;;18.80;34.10;;;;;;5064799;28;20031;-67
2022/04/17 07:13:26;;;;;;;3.22;2.58;;;18.80;34.40;;;;;;5075228;28;20038;-73
2022/04/17 07:15:52;;;;;;;3.78;2.70;;;19.60;34.00;;;;;;5057983;28;20028;-71
2022/04/17 07:18:18;;;;;;;3.03;2.50;;;20.00;33.00;;;;;;5077054;28;20050;-71
2022/04/17 07:20:44;;;;;;;2.88;2.45;;;21.00;31.40;;;;;;5080500;28;20027;-71
2022/04/17 07:23:10;;;;;;;3.58;2.35;;;22.50;30.10;;;;;;5071432;28;20039;-71
2022/04/17 07:25:36;;;;;;;3.47;2.15;;;24.00;28.00;;;;;;5071178;28;20389;-70
2022/04/17 07:28:03;;;;;;;2.85;2.20;;;23.90;27.00;;;;;;5077506;28;20491;-72
2022/04/17 07:30:30;;;;;;;6.75;2.50;;;22.50;28.30;;;;;;5076326;28;20032;-73
2022/04/17 07:33:01;;;;;;;2.75;2.30;;;20.90;29.30;;;;;;5062213;28;20803;-73
2022/04/17 07:35:28;;;;;;;3.05;2.50;;;19.40;31.30;;;;;;5073495;28;20100;-73
2022/04/17 07:37:59;;;;;;;3.42;2.25;;;18.60;33.30;;;;;;5077034;28;20031;-73
2022/04/17 07:40:27;;;;;;;1.92;1.73;;;18.20;32.60;;;;;;5075827;28;20035;-72
2022/04/17 07:42:55;;;;;;;3.35;2.40;;;18.50;34.00;;;;;;5072674;28;20832;-73
2022/04/17 07:45:21;;;;;;;4.03;2.55;;;20.40;30.40;;;;;;5075938;28;20035;-72
2022/04/17 07:47:48;;;;;;;3.25;2.47;;;20.80;30.20;;;;;;5078118;28;20024;-72
2022/04/17 07:50:17;;;;;;;3.63;2.33;;;20.70;30.60;;;;;;5072688;28;20028;-73
2022/04/17 07:52:44;;;;;;;2.65;2.17;;;20.50;30.40;;;;;;5082322;28;20110;-73
2022/04/17 07:55:12;;;;;;;2.42;1.98;;;20.50;31.00;;;;;;5067894;28;20032;-72
2022/04/17 08:00:28;;;;;;;3.17;2.45;;;20.00;31.80;;;;;;5053361;28;20043;-73
2022/04/17 08:03:08;;;;;;;2.72;2.15;;;20.10;32.60;;;;;;5073267;28;20036;-73
2022/04/17 08:05:37;;;;;;;2.45;2.00;;;20.90;30.80;;;;;;5072227;28;20033;-77
2022/04/17 08:08:04;;;;;;;2.00;1.73;;;22.30;29.40;;;;;;5077573;28;20031;-73
2022/04/17 08:10:30;;;;;;;5.28;2.25;;;23.10;28.10;;;;;;5076723;28;20487;-72
2022/04/17 08:12:56;;;;;;;2.38;1.77;;;23.10;29.10;;;;;;5078481;28;20036;-72
2022/04/17 08:15:21;;;;;;;1.85;1.40;;;22.70;28.90;;;;;;5076227;28;20064;-72
2022/04/17 08:17:47;;;;;;;3.75;1.85;;;22.70;28.40;;;;;;5076853;28;20556;-72
2022/04/17 08:20:13;;;;;;;1.83;1.60;;;22.90;28.20;;;;;;5070303;28;20040;-72
2022/04/17 08:22:39;;;;;;;3.80;2.50;;;22.80;28.90;;;;;;5067421;28;20032;-72
2022/04/17 08:25:05;;;;;;;2.53;1.63;;;24.40;27.50;;;;;;5070386;28;20039;-73
2022/04/17 08:27:30;;;;;;;2.15;1.30;;;27.10;25.90;;;;;;5079574;28;20609;-72
2022/04/17 08:29:56;;;;;;;1.23;1.13;;;26.00;25.40;;;;;;5077717;28;20036;-72
2022/04/17 08:32:22;;;;;;;2.30;1.70;;;24.30;27.30;;;;;;5068441;28;20463;-72
2022/04/17 08:34:47;;;;;;;2.35;1.33;;;23.40;28.00;;;;;;5077457;28;20796;-72
2022/04/17 08:37:13;;;;;;;1.73;1.58;;;22.90;28.70;;;;;;5076433;28;20035;-73
2022/04/17 08:39:39;;;;;;;1.95;1.70;;;22.60;28.90;;;;;;5072379;28;20040;-72
2022/04/17 08:42:05;;;;;;;4.03;1.60;;;22.00;29.50;;;;;;5073418;28;20085;-72
2022/04/17 08:44:31;;;;;;;1.77;1.60;;;22.30;30.20;;;;;;5070587;28;20135;-72
2022/04/17 08:46:57;;;;;;;3.40;1.73;;;22.50;29.50;;;;;;5076782;28;20028;-74
2022/04/17 08:49:24;;;;;;;1.92;1.73;;;22.50;29.50;;;;;;5076546;28;20114;-74
2022/04/17 08:51:53;;;;;;;3.03;1.92;;;23.20;28.60;;;;;;5081935;28;20028;-74
2022/04/17 08:54:21;;;;;;;1.77;1.60;;;24.80;27.90;;;;;;5087313;28;20027;-73
2022/04/17 08:56:46;;;;;;;2.97;1.85;;;25.90;27.00;;;;;;5080558;28;20047;-72
2022/04/17 08:59:13;;;;;;;2.17;1.90;;;27.40;25.60;;;;;;5073246;28;20036;-74
2022/04/17 09:01:39;;;;;;;2.65;1.73;;;28.00;25.90;;;;;;5070416;28;20454;-75
2022/04/17 09:04:07;;;;;;;1.50;1.33;;;29.10;25.40;;;;;;5071100;28;20136;-75
2022/04/17 09:06:35;;;;;;;2.25;1.73;;;30.50;24.40;;;;;;5076611;28;20043;-75
2022/04/17 09:09:06;;;;;;;2.08;1.50;;;32.00;23.70;;;;;;5076536;28;20119;-74
2022/04/17 09:11:33;;;;;;;2.22;1.60;;;33.40;22.70;;;;;;5083940;28;20146;-74
2022/04/17 09:14:04;;;;;;;2.00;1.77;;;33.10;21.70;;;;;;5076957;28;20036;-74
2022/04/17 09:16:35;;;;;;;2.17;1.70;;;32.40;22.10;;;;;;5079870;28;20399;-74
2022/04/17 09:19:13;;;;;;;2.17;1.30;;;32.00;22.50;;;;;;5080262;28;20036;-74
2022/04/17 09:21:39;;;;;;;1.40;1.30;;;31.90;22.60;;;;;;5074036;28;20075;-74
2022/04/17 09:24:26;;;;;;;2.17;1.63;;;31.50;22.60;;;;;;5081361;28;20559;-73
2022/04/17 09:26:57;;;;;;;2.25;1.48;;;30.80;23.30;;;;;;5075870;28;20912;-72
2022/04/17 09:29:25;;;;;;;2.30;1.85;;;30.20;23.30;;;;;;5073445;28;20032;-72
2022/04/17 09:32:11;;;;;;;3.63;1.63;;;30.00;23.60;;;;;;5072102;28;20667;-72
2022/04/17 09:34:52;;;;;;;2.35;1.80;;;30.30;22.90;;;;;;5074482;28;20048;-72
2022/04/17 09:37:27;;;;;;;2.10;1.70;;;32.00;23.20;;;;;;5070075;28;20039;-72
2022/04/17 09:40:04;;;;;;;2.30;1.80;;;31.10;22.80;;;;;;5075654;28;20109;-73
2022/04/17 09:42:30;;;;;;;2.85;1.80;;;28.70;23.70;;;;;;5080246;28;20035;-72
2022/04/17 09:44:57;;;;;;;2.28;1.63;;;25.90;25.80;;;;;;5069878;28;20399;-72
2022/04/17 09:47:28;;;;;;;2.53;1.65;;;24.00;27.10;;;;;;5061625;28;20418;-72
2022/04/17 09:49:59;;;;;;;2.78;1.90;;;26.60;25.80;;;;;;5074060;28;20031;-72
2022/04/17 09:52:29;;;;;;;2.90;1.83;;;30.40;24.20;;;;;;5066406;28;20582;-73
2022/04/17 09:54:55;;;;;;;3.17;2.22;;;31.80;22.60;;;;;;5073679;28;20023;-73
2022/04/17 09:57:34;;;;;;;2.88;2.15;;;32.20;22.20;;;;;;5077670;28;20032;-72
2022/04/17 10:00:19;;;;;;;2.67;1.98;;;31.70;22.00;;;;;;5068485;28;20484;-74
2022/04/17 10:02:46;;;;;;;2.03;1.83;;;33.60;21.70;;;;;;5065083;28;20051;-74
2022/04/17 10:05:19;;;;;;;2.22;1.75;;;36.60;21.00;;;;;;5074391;28;20073;-74
2022/04/17 10:07:47;;;;;;;4.45;2.10;;;38.00;20.10;;;;;;5074834;28;20070;-74
2022/04/17 10:10:14;;;;;;;2.60;1.90;;;34.80;20.90;;;;;;5075233;28;20031;-74
2022/04/17 10:12:47;;;;;;;2.58;2.17;;;34.10;21.10;;;;;;5082107;28;20032;-74
2022/04/17 10:15:13;;;;;;;3.72;2.20;;;33.10;21.40;;;;;;5077186;28;20035;-74
2022/04/17 10:17:44;;;;;;;3.35;2.40;;;31.30;22.70;;;;;;5068466;28;20063;-74
2022/04/17 10:20:12;;;;;;;2.97;1.98;;;30.20;23.70;;;;;;5078288;28;20043;-74
2022/04/17 10:22:39;;;;;;;7.38;2.75;;;28.50;24.30;;;;;;5075202;28;20036;-74
2022/04/17 10:25:09;;;;;;;2.83;2.00;;;26.40;26.10;;;;;;5086894;28;20039;-74
2022/04/17 10:27:46;;;;;;;3.15;2.00;;;24.90;27.20;;;;;;5072096;28;20040;-73
2022/04/17 10:30:18;;;;;;;2.50;1.83;;;23.80;27.70;;;;;;5076660;28;20046;-73
2022/04/17 10:33:21;;;;;;;2.13;1.55;;;23.50;29.30;;;;;;5082885;28;20682;-74
2022/04/17 10:36:22;;;;;;;2.65;1.95;;;25.10;26.10;;;;;;5074744;28;20037;-74
2022/04/17 10:39:07;;;;;;;3.33;1.95;;;24.70;26.70;;;;;;5061870;28;20036;-73
2022/04/17 10:41:33;;;;;;;2.40;1.63;;;25.60;26.90;;;;;;5080366;28;20131;-73
2022/04/17 10:43:59;;;;;;;2.45;1.65;;;29.80;25.30;;;;;;5079769;28;20110;-73
2022/04/17 10:46:25;;;;;;;2.85;1.80;;;31.40;23.60;;;;;;5083238;28;20067;-73
2022/04/17 10:48:55;;;;;;;2.92;1.52;;;33.00;22.90;;;;;;5073902;28;20028;-73
2022/04/17 10:51:35;;;;;;;2.45;1.58;;;33.80;21.80;;;;;;5071821;28;20039;-73
2022/04/17 10:54:03;;;;;;;3.13;2.00;;;33.90;21.80;;;;;;5077968;28;20028;-73
2022/04/17 10:56:33;;;;;;;3.17;2.10;;;34.50;21.80;;;;;;5061849;28;20663;-71
2022/04/17 10:59:05;;;;;;;2.63;2.00;;;34.80;21.40;;;;;;5050681;28;20044;-71
2022/04/17 11:01:43;;;;;;;2.17;1.70;;;32.60;22.40;;;;;;5082726;28;20586;-68
2022/04/17 11:04:38;;;;;;;2.20;1.73;;;30.20;24.30;;;;;;5060021;28;20036;-71
2022/04/17 11:07:04;;;;;;;2.75;1.50;;;29.30;24.10;;;;;;5054392;28;20036;-71
2022/04/17 11:09:33;;;;;;;3.08;1.85;;;27.20;26.00;;;;;;5083778;28;20035;-71
2022/04/17 11:12:11;;;;;;;3.15;1.90;;;25.00;26.70;;;;;;5072079;28;20046;-71
2022/04/17 11:14:39;;;;;;;4.20;2.22;;;23.10;29.00;;;;;;5081781;28;20031;-70
2022/04/17 11:17:11;;;;;;;3.40;1.83;;;21.80;31.50;;;;;;5069017;28;20032;-71
2022/04/17 11:19:39;;;;;;;2.13;1.63;;;21.20;32.40;;;;;;5073227;28;20211;-71
2022/04/17 11:22:07;;;;;;;3.35;1.95;;;20.80;32.10;;;;;;5078015;28;20032;-71
2022/04/17 11:25:00;;;;;;;3.15;2.28;;;20.40;33.30;;;;;;5073785;28;20028;-71
2022/04/17 11:27:32;;;;;;;3.78;2.17;;;20.40;33.50;;;;;;5052035;28;20055;-71
2022/04/17 11:30:03;;;;;;;3.20;2.33;;;20.30;32.70;;;;;;5080175;28;20035;-68
2022/04/17 11:32:29;;;;;;;4.75;2.38;;;20.10;33.70;;;;;;5060274;28;20036;-68
2022/04/17 11:34:57;;;;;;;4.35;2.50;;;20.20;34.00;;;;;;5079847;28;20086;-70
2022/04/17 11:37:27;;;;;;;6.20;3.15;;;20.00;34.00;;;;;;5083284;28;20034;-70
2022/04/17 11:39:55;;;;;;;56.45;23.48;;;19.80;33.00;;;;;;5078819;28;20105;-71
2022/04/17 11:42:21;;;;;;;10.20;4.50;;;19.70;34.80;;;;;;5072346;28;20510;-71
2022/04/17 11:44:49;;;;;;;27.40;13.63;;;19.70;34.30;;;;;;5079953;28;20166;-72
2022/04/17 11:47:17;;;;;;;10.23;5.25;;;19.80;34.80;;;;;;5080805;28;20503;-70
2022/04/17 11:49:43;;;;;;;27.52;15.10;;;20.10;32.40;;;;;;5081739;28;20123;-69
2022/04/17 11:52:10;;;;;;;4.93;2.63;;;20.20;32.90;;;;;;5078911;28;20111;-68
2022/04/17 11:54:36;;;;;;;3.08;2.10;;;19.90;34.00;;;;;;5065317;28;20118;-70
2022/04/17 11:57:02;;;;;;;5.68;3.35;;;19.30;33.90;;;;;;5080332;28;20034;-70
2022/04/17 11:59:28;;;;;;;48.47;28.23;;;18.90;34.80;;;;;;5080315;28;20802;-70
2022/04/17 12:02:16;;;;;;;44.55;23.70;;;18.80;36.60;;;;;;5075629;28;20173;-71
2022/04/17 12:04:46;;;;;;;32.25;16.17;;;18.70;36.20;;;;;;5060314;28;20044;-70
2022/04/17 12:07:14;;;;;;;24.20;12.35;;;18.70;34.20;;;;;;5067338;28;20031;-69
2022/04/17 12:09:40;;;;;;;5.55;3.17;;;18.40;35.00;;;;;;5085174;28;20504;-70
2022/04/17 12:12:17;;;;;;;11.15;5.78;;;18.30;34.70;;;;;;5077742;28;20036;-74
2022/04/17 12:14:44;;;;;;;26.60;17.10;;;18.20;36.40;;;;;;5077655;28;20143;-69
2022/04/17 12:17:10;;;;;;;20.08;12.65;;;18.20;36.60;;;;;;5078694;28;20034;-68
2022/04/17 12:19:36;;;;;;;2.88;1.33;;;18.10;37.80;;;;;;5071922;28;20040;-71
2022/04/17 12:22:12;;;;;;;4.10;1.60;;;17.90;38.20;;;;;;5071207;28;20556;-70
2022/04/17 12:24:38;;;;;;;2.63;1.33;;;17.90;37.90;;;;;;5075485;28;20028;-70
2022/04/17 12:27:04;;;;;;;7.85;4.93;;;17.90;37.60;;;;;;5081348;28;20483;-71
2022/04/17 12:29:32;;;;;;;1.95;1.45;;;17.60;38.40;;;;;;5080480;28;20115;-70
2022/04/17 12:31:57;;;;;;;1.83;1.30;;;17.30;37.00;;;;;;5076253;28;20134;-71
2022/04/17 12:34:23;;;;;;;2.50;1.02;;;17.20;38.30;;;;;;5078212;28;20031;-73
2022/04/17 12:36:49;;;;;;;1.75;1.20;;;17.10;38.00;;;;;;5073595;28;20887;-72
2022/04/17 12:39:16;;;;;;;3.33;1.50;;;17.00;38.60;;;;;;5061102;28;20044;-72
2022/04/17 12:41:46;;;;;;;2.80;1.20;;;17.00;38.40;;;;;;5077994;28;20455;-71
2022/04/17 12:44:12;;;;;;;3.17;1.60;;;16.90;37.50;;;;;;5080257;28;20053;-71
2022/04/17 12:46:42;;;;;;;2.05;1.15;;;16.90;36.90;;;;;;5076019;28;20036;-71
2022/04/17 12:49:16;;;;;;;1.40;0.95;;;16.90;38.00;;;;;;5076723;28;20499;-73
2022/04/17 12:51:59;;;;;;;2.08;1.20;;;16.80;38.30;;;;;;5074912;28;20494;-72
2022/04/17 12:54:35;;;;;;;2.65;1.25;;;16.80;38.40;;;;;;5079218;28;20376;-71
2022/04/17 12:57:08;;;;;;;2.17;1.20;;;16.60;39.20;;;;;;5078364;28;20028;-71
2022/04/17 12:59:51;;;;;;;4.22;1.02;;;16.50;38.30;;;;;;5057110;28;20906;-71
2022/04/17 13:02:25;;;;;;;1.60;1.10;;;16.50;40.20;;;;;;5083593;28;20031;-71
2022/04/17 13:05:02;;;;;;;1.73;1.05;;;16.60;38.80;;;;;;5072661;28;20139;-71
2022/04/17 13:07:35;;;;;;;1.42;1.17;;;16.70;34.90;;;;;;5077298;28;20036;-71
2022/04/17 13:10:04;;;;;;;3.30;1.08;;;16.80;36.10;;;;;;5086369;28;20024;-71